KTMK

Tillamook Airport

Tillamook, Oregon, USA
METAR KTMK 250255Z AUTO 28015G18KT 10SM SCT033 OVC044 13/09 A3008 RMK AO2
Observed Flight Rules
May-25 @ 02:55 UTC (18 minutes ago) Visual Flight Rules
Wind Visibility Clouds
280° at 15 knots
 Gusting to 18 knots
10 miles
  • Scattered at 3,300' AGL
  • Overcast at 4,400' AGL
Temperatures Readings
Current 13°C / 55°F
Dewpoint 9°C / 48°F
Humidity 77%
Altimeter 30.08" Hg
Pressure 1019 hPa
Elevation 11
METAR KTMK 250255Z AUTO 28015G18KT 10SM SCT033 OVC044 13/09 A3008 RMK AO2
Observed Flight Rules
May-25 @ 02:55 UTC
(18 minutes ago)
VFR
Wind Visibility
280° at 15 knots
 Gusting to 18 knots
10 miles
Clouds
  • Scattered at 3,300' AGL
  • Overcast at 4,400' AGL
Temperature Dewpoint
13°C / 55°F 9°C / 48°F
Humidity Altimeter Pressure
77% 30.08" Hg 1019 hPa